Flight Track Log - Related Links

Times and Time Zones

All times are in EDT time to prevent confusion due to time zone crossing. See the ASQ4577 flight status page for this flight to view local times or setup timezone preferences in your user account.

Time Position Orientation Groundspeed Altitude Reporting Facility
EDT Latitude Longitude Course Direction KTS MPH feet Rate Location/Type
Sun 07:28:56 PM 41.4194 -81.8375 90° East 163 188 1,800  Level Cleveland Center
Sun 07:29:32 PM 41.4489 -81.8158 29° Northeast 195 224 3,000 2,039 Climbing Cleveland Center
Sun 07:30:39 PM 41.5139 -81.7700 28° Northeast 255 293 5,300 2,409 Climbing Cleveland Center
Sun 07:31:39 PM 41.5750 -81.7183 32° Northeast 260 299 8,100 2,550 Climbing Cleveland Center
Sun 07:32:00 PM 41.7446 -81.5055 37° Northeast  Level FlightAware Approximate
Sun 07:32:39 PM 41.6319 -81.6528 41° Northeast 260 299 10,400  Level Cleveland Center
Sun 07:33:00 PM 41.8313 -81.4187 37° Northeast  Level FlightAware Approximate
Sun 07:33:39 PM 41.6972 -81.5814 39° Northeast 289 333 11,400  Level Cleveland Center
Sun 07:34:00 PM 41.8500 -81.2778 90° East  Level FlightAware Approximate
Sun 07:34:39 PM 41.7750 -81.4936 40° Northeast 333 383 12,100  Level Cleveland Center
Sun 07:35:39 PM 41.8383 -81.4025 47° Northeast 360 414 13,100 1,300 Climbing Cleveland Center
Sun 07:36:39 PM 41.8642 -81.2606 76° East 375 432 14,700 1,500 Climbing Cleveland Center
Sun 07:37:39 PM 41.8858 -81.1158 79° East 380 437 16,100 1,350 Climbing Cleveland Center
Sun 07:38:39 PM 41.9114 -80.9739 76° East 392 451 17,400 1,150 Climbing Cleveland Center
Sun 07:39:39 PM 41.9325 -80.8261 79° East 392 451 18,400 1,150 Climbing Cleveland Center
Sun 07:40:39 PM 41.9558 -80.6753 78° East 398 458 19,700 1,300 Climbing Cleveland Center
Sun 07:41:39 PM 41.9786 -80.5078 80° East 406 467 21,000 1,250 Climbing Cleveland Center
Sun 07:42:39 PM 42.0036 -80.3542 78° East 413 475 22,200 1,250 Climbing Cleveland Center
Sun 07:43:39 PM 42.0261 -80.1892 80° East 424 488 23,500 1,200 Climbing Cleveland Center
Sun 07:44:39 PM 42.0483 -80.0322 79° East 429 494 24,600 1,100 Climbing Cleveland Center
Sun 07:45:39 PM 42.0725 -79.8728 78° East 429 494 25,700 1,050 Climbing Cleveland Center
Sun 07:46:39 PM 42.0942 -79.7072 80° East 429 494 26,700 1,050 Climbing Cleveland Center
Sun 07:47:39 PM 42.1178 -79.5392 79° East 434 499 27,800 1,050 Climbing Cleveland Center
Sun 07:48:39 PM 42.1392 -79.3792 80° East 440 506 28,800 1,050 Climbing Cleveland Center
Sun 07:49:39 PM 42.1603 -79.2133 80° East 440 506 29,900 1,050 Climbing Cleveland Center
Sun 07:50:39 PM 42.1811 -79.0533 80° East 440 506 30,900 550 Climbing Cleveland Center
Sun 07:51:39 PM 42.2058 -78.8817 79° East 452 520 31,000 50 Climbing Cleveland Center
Sun 07:52:39 PM 42.2303 -78.7017 80° East 465 535 31,000  Level Cleveland Center
Sun 07:53:39 PM 42.2522 -78.5242 80° East 476 548 31,000  Level Cleveland Center
Sun 07:54:39 PM 42.2758 -78.3439 80° East 481 554 31,000  Level Cleveland Center
Sun 07:55:39 PM 42.2972 -78.1633 81° East 486 559 31,000  Level Cleveland Center
Sun 07:56:39 PM 42.3183 -77.9828 81° East 486 559 31,000  Level Cleveland Center
Sun 07:57:39 PM 42.3392 -77.8078 81° East 486 559 31,000 -100 Level Cleveland Center
Sun 07:58:39 PM 42.3600 -77.6356 81° East 481 554 30,800 -675 Descending Cleveland Center
Sun 08:00:28 PM 42.3947 -77.3356 81° East 481 554 29,100 -635 Descending Boston Center
Sun 08:01:29 PM 42.4172 -77.1517 81° East 481 554 29,000 -49 Descending Boston Center
Sun 08:02:30 PM 42.4369 -76.9731 81° East 481 554 29,000  Level Boston Center
Sun 08:03:30 PM 42.4586 -76.7944 81° East 481 554 29,000  Level Boston Center
Sun 08:04:28 PM 42.4781 -76.6125 82° East 481 554 29,000  Level Boston Center
Sun 08:05:29 PM 42.4989 -76.4336 81° East 481 554 29,000 -226 Level Boston Center
Sun 08:06:41 PM 42.5183 -76.2319 82° East 486 559 28,500 -451 Descending Boston Center
Sun 08:07:42 PM 42.5419 -76.0250 81° East 480 552 28,000 -800 Descending Boston Center
Sun 08:08:41 PM 42.5578 -75.8453 83° East 473 544 26,900 -1,513 Descending Boston Center
Sun 08:09:41 PM 42.5756 -75.6686 82° East 473 544 25,000 -1,934 Descending Boston Center
Sun 08:10:42 PM 42.5947 -75.4947 81° East 480 552 23,000 -2,017 Descending Boston Center
Sun 08:11:40 PM 42.6094 -75.3317 83° East 456 525 21,000 -1,983 Descending Boston Center
Sun 08:12:40 PM 42.6261 -75.1717 82° East 442 509 19,100 -1,934 Descending Boston Center
Sun 08:13:41 PM 42.6403 -75.0058 83° East 436 502 17,100 -1,967 Descending Boston Center
Sun 08:14:42 PM 42.6561 -74.8539 82° East 431 496 15,100 -1,981 Descending Boston Center
Sun 08:15:24 PM 42.6667 -74.7500 82° East 398 458 13,700 -1,934 Descending Boston Center
Sun 08:16:43 PM 42.6850 -74.5583 83° East 387 445 11,200 -1,182 Descending Boston Center
Sun 08:17:41 PM 42.6892 -74.4344 87° East 378 435 11,000 -712 Descending Boston Center
Sun 08:18:41 PM 42.6833 -74.3014 93° East 331 381 9,800 -1,438 Descending Boston Center
Sun 08:19:42 PM 42.6764 -74.2053 96° East 292 336 8,100 -1,785 Descending Boston Center
Sun 08:20:42 PM 42.6719 -74.0892 93° East 281 323 6,200 -1,850 Descending Boston Center
Sun 08:21:42 PM 42.6692 -73.9875 92° East 275 316 4,400 -1,613 Descending Boston Center
Sun 08:22:41 PM 42.6706 -73.8886 89° East 270 311 3,000 -700 Descending Boston Center
Sun 08:23:42 PM 42.6758 -73.7983 85° East 256 295 3,000 -403 Level Boston Center
Sun 08:24:40 PM 42.6889 -73.7308 75° East 222 255 2,200 -763 Descending Boston Center
Sun 08:25:40 PM 42.7206 -73.7175 17° North 222 255 1,500 -397 Descending Boston Center
Sun 08:26:41 PM 42.7336 -73.6442 76° East 182 209 1,400 13,033 Descending Boston Center
Sun 08:27:42 PM 42.7450 -73.5739 78° East 182 209 28,000 13,190 Climbing Boston Center
Sun 08:28:42 PM 42.7561 -73.5033 78° East 182 209 28,000  Level Boston Center
Sun 08:29:40 PM 42.7669 -73.4328 78° East 182 209 28,000  Level Boston Center

Login

Don't have an account? Register now (free) for customized features, flight alerts, and more!